createdAt,value
2022-10-18T00:02:07.491Z,77.30
2022-10-18T00:04:34.029Z,76.39
2022-10-18T00:07:00.596Z,76.19
2022-10-18T00:09:27.153Z,78.13
2022-10-18T00:11:54.248Z,78.42
2022-10-18T00:14:20.756Z,77.87
2022-10-18T00:16:47.183Z,76.94
2022-10-18T00:19:15.358Z,77.57
2022-10-18T00:21:42.228Z,77.02
2022-10-18T00:24:08.903Z,77.15
2022-10-18T00:26:35.368Z,76.11
2022-10-18T00:29:04.387Z,77.39
2022-10-18T00:31:32.772Z,78.27
2022-10-18T00:34:01.984Z,76.99
2022-10-18T00:36:31.602Z,76.66
2022-10-18T00:38:58.424Z,75.93
2022-10-18T00:41:27.327Z,76.11
2022-10-18T00:43:56.784Z,76.51
2022-10-18T00:46:24.576Z,77.42
2022-10-18T00:48:52.422Z,77.17
2022-10-18T00:51:21.213Z,76.19
2022-10-18T00:53:49.336Z,77.42
2022-10-18T00:56:15.759Z,76.81
2022-10-18T00:58:42.818Z,76.35
2022-10-18T01:01:09.393Z,75.65
2022-10-18T01:03:36.956Z,75.96
2022-10-18T01:06:03.543Z,77.18
2022-10-18T01:08:45.058Z,75.81
2022-10-18T01:11:25.897Z,76.52
2022-10-18T01:14:01.594Z,75.40
2022-10-18T01:16:36.636Z,75.51
2022-10-18T01:19:12.474Z,75.64
2022-10-18T01:21:44.444Z,74.70
2022-10-18T01:24:45.668Z,74.71
2022-10-18T01:27:34.901Z,76.48
2022-10-18T01:30:34.666Z,75.79
2022-10-18T01:33:07.200Z,74.75
2022-10-18T01:35:39.470Z,76.09
2022-10-18T01:38:11.237Z,78.46
2022-10-18T01:40:40.018Z,76.35
2022-10-18T01:43:09.397Z,76.63
2022-10-18T01:45:37.183Z,78.20
2022-10-18T01:48:04.309Z,77.61
2022-10-18T01:50:33.105Z,76.53
2022-10-18T01:53:00.099Z,76.64
2022-10-18T01:55:33.524Z,76.79
2022-10-18T01:58:05.810Z,76.17
2022-10-18T02:00:39.929Z,76.71
2022-10-18T02:03:15.255Z,77.10
2022-10-18T02:05:48.110Z,77.92
2022-10-18T02:08:23.973Z,77.17
2022-10-18T02:10:55.358Z,77.61
2022-10-18T02:13:23.267Z,77.07
2022-10-18T02:15:57.389Z,76.48
2022-10-18T02:18:28.976Z,75.95
2022-10-18T02:20:56.326Z,76.46
2022-10-18T02:23:25.825Z,77.44
2022-10-18T02:25:53.213Z,79.48
2022-10-18T02:28:20.399Z,78.82
2022-10-18T02:30:57.653Z,78.33
2022-10-18T02:33:32.945Z,78.10
2022-10-18T02:36:04.490Z,77.73
2022-10-18T02:38:32.158Z,78.33
2022-10-18T02:40:59.159Z,76.88
2022-10-18T02:43:25.661Z,77.93
2022-10-18T02:45:53.574Z,78.12
2022-10-18T02:48:20.093Z,79.69
2022-10-18T02:50:46.499Z,78.87
2022-10-18T02:53:12.931Z,78.36
2022-10-18T02:55:39.385Z,78.40
2022-10-18T02:58:05.797Z,77.31
2022-10-18T03:00:32.206Z,78.67
2022-10-18T03:02:59.939Z,78.42
2022-10-18T03:05:26.520Z,79.38
2022-10-18T03:07:52.932Z,78.89
2022-10-18T03:10:19.335Z,78.74
2022-10-18T03:12:45.744Z,77.74
2022-10-18T03:15:12.145Z,77.43
2022-10-18T03:17:38.543Z,77.70
2022-10-18T03:20:07.655Z,77.66
2022-10-18T03:22:34.034Z,76.80
2022-10-18T03:25:00.602Z,76.84
2022-10-18T03:27:27.183Z,76.77
2022-10-18T03:29:53.556Z,77.06
2022-10-18T03:32:19.933Z,76.25
2022-10-18T03:34:46.405Z,77.10
2022-10-18T03:37:14.273Z,77.16
2022-10-18T03:39:40.659Z,77.74
2022-10-18T03:42:07.082Z,77.18
2022-10-18T03:44:33.478Z,77.24
2022-10-18T03:46:59.886Z,76.22
2022-10-18T03:49:26.338Z,76.77
2022-10-18T03:51:52.773Z,77.31
2022-10-18T03:54:20.604Z,77.98
2022-10-18T03:56:47.011Z,77.25
2022-10-18T03:59:13.474Z,77.54
2022-10-18T04:01:39.916Z,76.63
2022-10-18T04:04:06.382Z,76.97
2022-10-18T04:06:32.816Z,76.41
2022-10-18T04:08:59.204Z,78.00
2022-10-18T04:11:27.032Z,78.73
2022-10-18T04:13:53.413Z,77.55
2022-10-18T04:16:19.800Z,76.57
2022-10-18T04:18:46.240Z,77.44
2022-10-18T04:21:12.651Z,77.76
2022-10-18T04:23:39.292Z,77.64
2022-10-18T04:26:06.112Z,77.04
2022-10-18T04:28:34.996Z,77.70
2022-10-18T04:31:01.450Z,76.88
2022-10-18T04:33:28.015Z,77.30
2022-10-18T04:35:54.403Z,76.87
2022-10-18T04:38:20.811Z,77.29
2022-10-18T04:40:47.215Z,77.33
2022-10-18T04:43:13.795Z,76.88
2022-10-18T04:45:41.554Z,77.75
2022-10-18T04:48:07.966Z,78.34
2022-10-18T04:50:34.364Z,76.78
2022-10-18T04:53:00.779Z,77.96
2022-10-18T04:55:27.314Z,78.96
2022-10-18T04:57:53.713Z,78.17
2022-10-18T05:00:20.384Z,77.51
2022-10-18T05:02:48.143Z,77.17
2022-10-18T05:05:14.854Z,77.99
2022-10-18T05:07:41.399Z,77.35
2022-10-18T05:10:08.932Z,76.62
2022-10-18T05:12:35.399Z,76.98
2022-10-18T05:15:01.932Z,77.19
2022-10-18T05:17:28.405Z,77.62
2022-10-18T05:19:56.168Z,76.97
2022-10-18T05:22:22.564Z,79.05
2022-10-18T05:24:48.964Z,80.35
2022-10-18T05:27:15.371Z,78.12
2022-10-18T05:29:41.840Z,78.14
2022-10-18T05:32:08.268Z,77.49
2022-10-18T05:34:34.714Z,77.43
2022-10-18T05:37:02.542Z,77.12
2022-10-18T05:39:29.096Z,77.46
2022-10-18T05:41:55.570Z,77.36
2022-10-18T05:44:22.215Z,77.07
2022-10-18T05:46:48.715Z,78.12
2022-10-18T05:49:15.145Z,77.96
2022-10-18T05:51:41.550Z,77.38
2022-10-18T05:54:11.250Z,78.29
2022-10-18T05:59:09.456Z,79.66
2022-10-18T06:01:35.946Z,78.54
2022-10-18T06:04:02.381Z,77.50
2022-10-18T06:06:28.946Z,77.44
2022-10-18T06:08:55.363Z,76.86
2022-10-18T06:11:23.478Z,77.04
2022-10-18T06:13:51.642Z,76.70
2022-10-18T06:16:20.069Z,77.60
2022-10-18T06:18:48.105Z,76.91
2022-10-18T06:21:14.612Z,77.11
2022-10-18T06:23:41.070Z,76.60
2022-10-18T06:26:10.222Z,76.10
2022-10-18T06:28:38.307Z,76.80
2022-10-18T06:31:06.144Z,77.26
2022-10-18T06:33:33.552Z,78.74
2022-10-18T06:36:01.867Z,80.51
2022-10-18T06:38:29.347Z,79.03
2022-10-18T06:40:56.891Z,77.25
2022-10-18T06:43:23.479Z,78.62
2022-10-18T06:45:51.664Z,79.01
2022-10-18T06:50:51.435Z,78.17
2022-10-18T06:53:17.859Z,78.06
2022-10-18T06:55:44.302Z,79.07
2022-10-18T06:58:10.737Z,77.58
2022-10-18T07:00:37.183Z,77.45
2022-10-18T07:03:05.139Z,77.32
2022-10-18T07:07:59.470Z,77.66
2022-10-18T07:10:25.936Z,76.43
2022-10-18T07:12:59.235Z,77.33
2022-10-18T07:15:34.676Z,77.60
2022-10-18T07:18:01.147Z,77.69
2022-10-18T07:20:28.959Z,77.62
2022-10-18T07:22:55.793Z,76.51
2022-10-18T07:25:23.926Z,76.25
2022-10-18T07:27:52.751Z,75.73
2022-10-18T07:30:19.395Z,76.82
2022-10-18T07:32:45.801Z,77.57
2022-10-18T07:37:44.844Z,77.12
2022-10-18T07:40:12.157Z,76.94
2022-10-18T07:42:38.704Z,75.84
2022-10-18T07:45:05.540Z,75.90
2022-10-18T07:47:35.097Z,76.46
2022-10-18T07:50:01.858Z,77.09
2022-10-18T07:52:28.249Z,74.67
2022-10-18T07:54:56.033Z,75.68
2022-10-18T07:57:22.435Z,75.29
2022-10-18T07:59:48.960Z,75.62
2022-10-18T08:02:15.380Z,74.43
2022-10-18T08:04:41.787Z,74.89
2022-10-18T08:07:08.179Z,74.76
2022-10-18T08:09:34.625Z,74.14
2022-10-18T08:12:02.351Z,73.88
2022-10-18T08:14:29.196Z,72.87
2022-10-18T08:16:56.188Z,71.63
2022-10-18T08:19:22.991Z,71.03
2022-10-18T08:21:49.448Z,70.58
2022-10-18T08:24:16.064Z,70.76
2022-10-18T08:26:42.494Z,70.70
2022-10-18T08:29:22.166Z,69.65
2022-10-18T08:31:50.753Z,69.28
2022-10-18T08:34:19.672Z,69.92
2022-10-18T08:36:46.668Z,69.63
2022-10-18T08:39:13.106Z,70.87
2022-10-18T08:41:53.700Z,70.46
2022-10-18T08:44:24.342Z,70.70
2022-10-18T08:46:53.001Z,72.08
2022-10-18T08:49:25.095Z,71.07
2022-10-18T08:51:51.861Z,71.63
2022-10-18T08:54:25.755Z,73.16
2022-10-18T08:56:58.848Z,72.81
2022-10-18T08:59:31.960Z,71.10
2022-10-18T09:02:05.319Z,72.80
2022-10-18T09:04:41.338Z,71.57
2022-10-18T09:07:32.009Z,70.75
2022-10-18T09:10:08.316Z,73.49
2022-10-18T09:12:51.208Z,70.47
2022-10-18T09:15:27.785Z,73.92
2022-10-18T09:18:08.998Z,73.98
2022-10-18T09:20:47.259Z,73.73
2022-10-18T09:23:19.183Z,74.98
2022-10-18T09:25:47.796Z,73.25
2022-10-18T09:28:19.268Z,71.63
2022-10-18T09:30:57.220Z,70.38
2022-10-18T09:33:39.096Z,70.03
2022-10-18T09:36:08.557Z,68.57
2022-10-18T09:38:46.213Z,72.73
2022-10-18T09:41:18.981Z,72.21
2022-10-18T09:43:54.344Z,70.54
2022-10-18T09:46:26.717Z,69.65
2022-10-18T09:48:58.115Z,68.15
2022-10-18T09:51:28.793Z,68.92
2022-10-18T09:54:04.154Z,67.47
2022-10-18T09:56:39.403Z,67.50
2022-10-18T09:59:27.962Z,66.74
2022-10-18T10:01:56.200Z,66.77
2022-10-18T10:04:22.702Z,66.00
2022-10-18T10:06:50.077Z,66.32
2022-10-18T10:09:18.511Z,66.58
2022-10-18T10:11:47.398Z,65.13
2022-10-18T10:16:48.570Z,66.05
2022-10-18T10:19:27.900Z,67.73
2022-10-18T10:21:58.670Z,68.17
2022-10-18T10:24:33.901Z,67.93
2022-10-18T10:27:03.138Z,66.14
2022-10-18T10:29:51.914Z,65.44
2022-10-18T10:32:21.163Z,67.43
2022-10-18T10:34:49.418Z,66.24
2022-10-18T10:37:31.946Z,64.70
2022-10-18T10:40:17.783Z,65.74
2022-10-18T10:43:18.199Z,68.36
2022-10-18T10:45:57.946Z,65.16
2022-10-18T10:48:27.824Z,64.25
2022-10-18T10:51:03.108Z,61.97
2022-10-18T10:53:37.854Z,62.10
2022-10-18T10:56:06.185Z,62.96
2022-10-18T10:58:37.126Z,64.47
2022-10-18T11:01:20.196Z,64.26
2022-10-18T11:03:48.671Z,64.86
2022-10-18T11:06:46.124Z,63.44
2022-10-18T11:09:27.499Z,61.78
2022-10-18T11:12:03.606Z,61.16
2022-10-18T11:14:36.659Z,63.01
2022-10-18T11:17:12.721Z,61.96
2022-10-18T11:19:56.315Z,62.44
2022-10-18T11:22:28.530Z,65.84
2022-10-18T11:24:55.625Z,63.30
2022-10-18T11:27:26.548Z,62.94
2022-10-18T11:30:19.638Z,61.08
2022-10-18T11:32:54.835Z,61.38
2022-10-18T11:35:33.907Z,59.15
2022-10-18T11:38:15.463Z,59.53
2022-10-18T11:40:52.633Z,58.61
2022-10-18T11:43:30.371Z,58.22
2022-10-18T11:46:13.404Z,59.81
2022-10-18T11:49:05.724Z,61.37
2022-10-18T11:52:06.639Z,59.29
2022-10-18T11:54:51.903Z,58.93
2022-10-18T11:57:36.182Z,58.11
2022-10-18T12:00:14.810Z,55.40
2022-10-18T12:02:54.706Z,56.10
2022-10-18T12:05:24.327Z,56.60
2022-10-18T12:08:05.508Z,56.74
2022-10-18T12:10:45.940Z,56.19
2022-10-18T12:13:27.887Z,57.56
2022-10-18T12:15:55.455Z,59.21
2022-10-18T12:18:25.290Z,58.42
2022-10-18T12:20:54.591Z,57.13
2022-10-18T12:23:33.679Z,55.77
2022-10-18T12:26:04.360Z,55.21
2022-10-18T12:28:39.598Z,55.23
2022-10-18T12:31:13.014Z,54.99
2022-10-18T12:33:44.974Z,54.60
2022-10-18T12:36:18.770Z,55.01
2022-10-18T12:38:48.664Z,54.96
2022-10-18T12:41:20.997Z,54.69
2022-10-18T12:43:51.803Z,54.16
2022-10-18T12:46:18.289Z,53.14
2022-10-18T12:48:59.743Z,52.77
2022-10-18T12:51:26.205Z,52.25
2022-10-18T12:54:08.659Z,52.74
2022-10-18T12:56:39.431Z,50.43
2022-10-18T12:59:40.548Z,49.83
2022-10-18T13:02:24.068Z,50.53
2022-10-18T13:04:50.654Z,50.23
2022-10-18T13:07:33.673Z,49.71
2022-10-18T13:10:33.596Z,48.69
2022-10-18T13:13:39.719Z,48.42
2022-10-18T13:16:29.232Z,48.61
2022-10-18T13:18:58.642Z,48.11
2022-10-18T13:21:44.318Z,49.05
2022-10-18T13:24:26.573Z,48.67
2022-10-18T13:27:24.507Z,49.14
2022-10-18T13:30:09.926Z,49.41
2022-10-18T13:32:48.027Z,51.06
2022-10-18T13:35:48.730Z,50.36
2022-10-18T13:38:46.556Z,50.49
2022-10-18T13:41:15.752Z,52.68
2022-10-18T13:44:15.123Z,51.66
2022-10-18T13:47:18.005Z,51.72
2022-10-18T13:50:14.253Z,53.08
2022-10-18T13:53:07.404Z,52.14
2022-10-18T13:55:49.815Z,53.30
2022-10-18T13:58:30.292Z,54.08
2022-10-18T14:01:07.565Z,53.56
2022-10-18T14:04:06.396Z,51.90
2022-10-18T14:06:35.193Z,51.92
2022-10-18T14:09:14.190Z,51.99
2022-10-18T14:11:56.583Z,50.93
2022-10-18T14:14:30.179Z,49.91
2022-10-18T14:17:03.449Z,49.63
2022-10-18T14:19:36.318Z,48.45
2022-10-18T14:22:10.322Z,49.01
2022-10-18T14:24:40.428Z,49.41
2022-10-18T14:27:11.536Z,50.35
2022-10-18T14:29:38.552Z,50.11
2022-10-18T14:32:09.300Z,48.76
2022-10-18T14:34:36.349Z,48.17
2022-10-18T14:37:03.141Z,47.78
2022-10-18T14:39:29.563Z,47.75
2022-10-18T14:41:58.602Z,47.68
2022-10-18T14:44:27.423Z,47.90
2022-10-18T14:47:00.412Z,49.00
2022-10-18T14:49:26.917Z,47.81
2022-10-18T14:51:55.750Z,49.00
2022-10-18T14:54:26.239Z,48.43
2022-10-18T14:56:57.063Z,46.51
2022-10-18T14:59:26.261Z,45.17
2022-10-18T15:01:56.015Z,45.74
2022-10-18T15:04:27.821Z,47.53
2022-10-18T15:06:55.800Z,46.97
2022-10-18T15:09:23.722Z,46.96
2022-10-18T15:11:50.616Z,46.41
2022-10-18T15:14:19.931Z,46.55
2022-10-18T15:16:48.772Z,47.00
2022-10-18T15:19:33.355Z,47.81
2022-10-18T15:22:31.390Z,48.74
2022-10-18T15:25:26.768Z,48.46
2022-10-18T15:27:56.568Z,47.94
2022-10-18T15:30:27.104Z,47.71
2022-10-18T15:32:55.718Z,48.40
2022-10-18T15:35:26.577Z,49.71
2022-10-18T15:37:54.514Z,50.06
2022-10-18T15:40:37.310Z,51.00
2022-10-18T15:43:06.282Z,52.80
2022-10-18T15:45:45.295Z,53.25
2022-10-18T15:48:22.007Z,54.99
2022-10-18T15:50:50.838Z,54.97
2022-10-18T15:53:31.166Z,55.03
2022-10-18T15:55:59.994Z,56.32
2022-10-18T15:58:28.872Z,56.42
2022-10-18T16:00:59.828Z,56.12
2022-10-18T16:03:27.690Z,57.02
2022-10-18T16:05:58.418Z,57.93
2022-10-18T16:08:27.251Z,57.32
2022-10-18T16:10:53.714Z,57.73
2022-10-18T16:13:20.470Z,57.91
2022-10-18T16:15:46.939Z,58.45
2022-10-18T16:18:17.338Z,58.45
2022-10-18T16:20:44.106Z,58.31
2022-10-18T16:23:17.484Z,57.55
2022-10-18T16:25:43.952Z,57.69
2022-10-18T16:28:14.291Z,57.75
2022-10-18T16:30:43.443Z,57.41
2022-10-18T16:33:09.870Z,58.31
2022-10-18T16:35:37.790Z,58.61
2022-10-18T16:38:04.269Z,59.37
2022-10-18T16:40:30.679Z,59.31
2022-10-18T16:42:57.116Z,58.18
2022-10-18T16:45:23.613Z,58.21
2022-10-18T16:47:50.099Z,58.88
2022-10-18T16:50:19.036Z,57.72
2022-10-18T16:52:46.805Z,57.74
2022-10-18T16:55:13.464Z,57.48
2022-10-18T16:57:39.909Z,58.53
2022-10-18T17:00:07.371Z,58.12
2022-10-18T17:02:34.008Z,58.24
2022-10-18T17:05:00.760Z,57.75
2022-10-18T17:07:27.191Z,58.68
2022-10-18T17:09:54.912Z,58.80
2022-10-18T17:12:21.319Z,58.28
2022-10-18T17:14:47.780Z,57.18
2022-10-18T17:17:14.223Z,58.11
2022-10-18T17:19:40.641Z,59.95
2022-10-18T17:22:07.081Z,58.91
2022-10-18T17:24:33.487Z,59.26
2022-10-18T17:27:01.439Z,58.94
2022-10-18T17:29:27.894Z,58.76
2022-10-18T17:31:54.288Z,59.48
2022-10-18T17:34:21.505Z,59.35
2022-10-18T17:36:48.112Z,61.15
2022-10-18T17:39:14.541Z,60.98
2022-10-18T17:41:40.969Z,61.57
2022-10-18T17:44:08.714Z,61.35
2022-10-18T17:46:35.579Z,60.84
2022-10-18T17:49:02.847Z,61.30
2022-10-18T17:51:29.362Z,61.96
2022-10-18T17:53:55.919Z,61.83
2022-10-18T17:56:22.380Z,61.56
2022-10-18T17:58:50.361Z,61.18
2022-10-18T18:01:20.944Z,62.13
2022-10-18T18:03:47.666Z,62.39
2022-10-18T18:06:16.191Z,61.38
2022-10-18T18:08:42.632Z,60.11
2022-10-18T18:11:09.058Z,62.00
2022-10-18T18:13:35.512Z,63.21
2022-10-18T18:16:10.838Z,61.27
2022-10-18T18:18:38.776Z,61.71
2022-10-18T18:21:05.514Z,61.37
2022-10-18T18:23:32.238Z,61.43
2022-10-18T18:25:58.828Z,61.99
2022-10-18T18:28:25.321Z,61.84
2022-10-18T18:30:51.796Z,62.06
2022-10-18T18:33:18.269Z,61.33
2022-10-18T18:35:54.087Z,61.40
2022-10-18T18:38:20.534Z,62.39
2022-10-18T18:40:46.981Z,60.73
2022-10-18T18:43:28.212Z,62.48
2022-10-18T18:45:54.680Z,62.34
2022-10-18T18:48:21.099Z,61.94
2022-10-18T18:50:48.898Z,61.45
2022-10-18T18:53:15.592Z,61.42
2022-10-18T18:55:42.029Z,60.99
2022-10-18T18:58:08.494Z,62.38
2022-10-18T19:00:40.382Z,61.40
2022-10-18T19:03:10.405Z,61.17
2022-10-18T19:05:37.081Z,60.98
2022-10-18T19:08:05.738Z,61.52
2022-10-18T19:10:32.281Z,61.20
2022-10-18T19:12:59.047Z,61.85
2022-10-18T19:15:25.664Z,60.87
2022-10-18T19:17:52.100Z,61.29
2022-10-18T19:20:18.753Z,61.10
2022-10-18T19:22:45.453Z,61.50
2022-10-18T19:25:13.204Z,60.90
2022-10-18T19:27:39.745Z,60.43
2022-10-18T19:30:10.798Z,61.71
2022-10-18T19:32:37.235Z,62.73
2022-10-18T19:35:04.078Z,61.84
2022-10-18T19:37:30.627Z,62.65
2022-10-18T19:39:57.181Z,61.36
2022-10-18T19:42:27.511Z,62.19
2022-10-18T19:44:56.875Z,60.88
2022-10-18T19:47:23.310Z,61.48
2022-10-18T19:49:49.740Z,60.93
2022-10-18T19:52:16.182Z,62.20
2022-10-18T19:54:42.628Z,62.88
2022-10-18T19:57:09.151Z,62.35
2022-10-18T19:59:36.989Z,62.37
2022-10-18T20:02:03.487Z,61.77
2022-10-18T20:04:30.142Z,61.04
2022-10-18T20:06:56.568Z,62.11
2022-10-18T20:09:22.992Z,62.37
2022-10-18T20:11:49.413Z,62.18
2022-10-18T20:14:15.825Z,61.52
2022-10-18T20:16:43.619Z,61.80
2022-10-18T20:19:10.538Z,60.93
2022-10-18T20:21:37.236Z,62.43
2022-10-18T20:24:04.932Z,62.51
2022-10-18T20:26:31.996Z,61.70
2022-10-18T20:28:58.614Z,62.84
2022-10-18T20:31:26.668Z,62.17
2022-10-18T20:33:56.089Z,62.57
2022-10-18T20:36:22.833Z,61.91
2022-10-18T20:38:49.279Z,63.41
2022-10-18T20:41:21.144Z,61.91
2022-10-18T20:43:51.294Z,62.43
2022-10-18T20:46:17.964Z,61.40
2022-10-18T20:48:44.381Z,62.93
2022-10-18T20:51:12.513Z,63.55
2022-10-18T20:53:39.808Z,63.23
2022-10-18T20:56:08.433Z,62.78
2022-10-18T20:58:36.167Z,62.45
2022-10-18T21:01:07.212Z,63.95
2022-10-18T21:03:36.337Z,62.49
2022-10-18T21:06:08.462Z,63.20
2022-10-18T21:08:36.322Z,62.08
2022-10-18T21:11:03.776Z,63.30
2022-10-18T21:13:30.438Z,62.29
2022-10-18T21:15:57.782Z,62.38
2022-10-18T21:18:25.071Z,62.97
2022-10-18T21:20:51.907Z,62.25
2022-10-18T21:23:18.601Z,62.87
2022-10-18T21:25:46.686Z,62.86
2022-10-18T21:28:13.610Z,62.38
2022-10-18T21:30:40.264Z,62.66
2022-10-18T21:33:07.028Z,62.37
2022-10-18T21:35:35.525Z,63.44
2022-10-18T21:38:02.018Z,63.02
2022-10-18T21:40:28.518Z,62.83
2022-10-18T21:42:56.308Z,61.50
2022-10-18T21:45:22.711Z,62.03
2022-10-18T21:47:49.388Z,63.45
2022-10-18T21:50:16.144Z,62.81
2022-10-18T21:52:42.567Z,62.81
2022-10-18T21:55:09.483Z,63.74
2022-10-18T22:00:12.368Z,63.30
2022-10-18T22:02:38.804Z,63.98
2022-10-18T22:05:08.310Z,63.27
2022-10-18T22:07:37.895Z,61.70
2022-10-18T22:10:04.753Z,61.34
2022-10-18T22:12:31.241Z,62.22
2022-10-18T22:14:57.696Z,60.99
2022-10-18T22:17:25.434Z,61.93
2022-10-18T22:19:51.816Z,62.27
2022-10-18T22:22:18.232Z,63.56
2022-10-18T22:24:44.616Z,61.71
2022-10-18T22:27:11.042Z,60.16
2022-10-18T22:29:37.683Z,61.56
2022-10-18T22:32:04.210Z,61.94
2022-10-18T22:34:31.930Z,61.19
2022-10-18T22:36:58.361Z,60.69
2022-10-18T22:39:24.878Z,60.00
2022-10-18T22:41:51.343Z,60.54
2022-10-18T22:44:17.746Z,60.52
2022-10-18T22:46:44.133Z,60.45
2022-10-18T22:49:11.546Z,60.00
2022-10-18T22:51:39.612Z,59.44
2022-10-18T22:54:06.164Z,59.79
2022-10-18T22:56:32.704Z,59.31
2022-10-18T22:58:59.121Z,59.36
2022-10-18T23:01:25.539Z,58.54
2022-10-18T23:03:52.933Z,57.65
2022-10-18T23:06:22.319Z,59.19
2022-10-18T23:08:51.120Z,59.08
2022-10-18T23:11:18.387Z,58.25
2022-10-18T23:13:45.283Z,57.76
2022-10-18T23:16:11.839Z,59.11
2022-10-18T23:21:08.214Z,59.08
2022-10-18T23:23:36.660Z,60.17
2022-10-18T23:26:06.947Z,60.61
2022-10-18T23:28:34.369Z,58.87
2022-10-18T23:31:05.325Z,58.85
2022-10-18T23:33:31.720Z,60.25
2022-10-18T23:35:59.186Z,59.52
2022-10-18T23:38:25.612Z,59.84
2022-10-18T23:40:52.015Z,59.21
2022-10-18T23:43:19.907Z,60.18
2022-10-18T23:48:17.871Z,59.61
2022-10-18T23:50:44.311Z,60.80
2022-10-18T23:53:11.067Z,60.30
2022-10-18T23:55:37.490Z,58.95
2022-10-18T23:58:03.998Z,59.51
